Tropical Cyclones
[Index]
Main Index Home Page Stock Weather Photos Extreme Storms Discussion Storm News and Storm Chasing Reports Tropical Cyclones / Hurricanes / Typhoons Weather Data and Links Wild Fires / Bushfires Weather Observation Techniques Weather Picture Catalogue Tornado Pictures and Reports Stock Video Footage and DVDs for sale
Season 2014-2015 Tropical Cyclone ADJALI Track Map
Season 2014-2015 Summaries: [BoM-AU] [JTWC-AU] [JTWC-SIO] [JTWC-SPAC] [JTWC-SH]
<<- Previous TC | JTWC 2014-2015 Season | Next TC ->>

click for intensity scale information  Lat/long Grid: Show Hide

 Date Labels: Show Hide

Joint Typhoon Warning Centre Cyclone Data

Name: ADJALI

15 Nov 2014 00:00 UTC to 24 Nov 2014 12:00 UTC

    date/time    lat    long     hPa   cat  kts
2014-11-15 00    6.0    66.0    1007         20          
2014-11-15 06    6.5    66.0    1007         20          
2014-11-15 12    7.1    66.0    1007         20          
2014-11-15 18    7.7    66.1    1007         20          
2014-11-16 00    7.9    66.2    1004         25          
2014-11-16 06    8.1    66.3    1000         30          
2014-11-16 12    8.4    66.4    1000         30          
2014-11-16 18    8.7    66.6     993    1    40          
2014-11-17 00    9.0    66.9     985    1    50          
2014-11-17 06    9.2    67.3     978    2    60          
2014-11-17 06    9.2    67.3     978    2    60          
2014-11-17 12    9.4    67.9     974    2    65          
2014-11-17 12    9.4    67.9     974    2    65          
2014-11-17 18    9.6    68.6     974    2    65          
2014-11-17 18    9.6    68.6     974    2    65          
2014-11-18 00   10.2    69.3     970    2    70          
2014-11-18 00   10.2    69.3     970    2    70          
2014-11-18 00   10.2    69.3     970    2    70          
2014-11-18 06   10.7    69.8     974    2    65          
2014-11-18 06   10.7    69.8     974    2    65          
2014-11-18 12   11.2    70.1     978    2    60          
2014-11-18 12   11.2    70.1     978    2    60          
2014-11-18 18   11.6    70.3     982    2    55          
2014-11-18 18   11.6    70.3     982    2    55          
2014-11-19 00   12.1    70.5     982    2    55          
2014-11-19 00   12.1    70.5     982    2    55          
2014-11-19 06   12.6    70.5     982    2    55          
2014-11-19 06   12.6    70.5     982    2    55          
2014-11-19 12   13.0    70.3     988    1    45          
2014-11-19 18   13.3    70.0     996         35          
2014-11-20 00   13.5    69.7    1000         30          
2014-11-20 06   13.8    69.3    1004         25          
2014-11-20 12   14.1    68.6    1004         25          
2014-11-20 18   14.3    67.6    1004         25          
2014-11-21 00   14.8    66.3    1007         20          
2014-11-21 06   15.2    64.9    1007         20          
2014-11-21 12   15.0    63.5    1007         20          
2014-11-21 18   14.8    62.5    1007         20          
2014-11-22 00   14.6    61.6    1007         20          
2014-11-22 06   14.3    60.6    1007         20          
2014-11-22 12   14.1    59.5    1007         20          
2014-11-22 18   13.9    58.2    1007         20          
2014-11-23 00   13.6    57.3    1007         20          
2014-11-23 06   13.4    56.2    1007         20          
2014-11-23 12   13.2    55.1    1007         20          
2014-11-23 18   13.1    53.9    1007         20          
2014-11-24 00   12.9    52.5    1007         20          
2014-11-24 06   12.1    51.2    1007         20          
2014-11-24 12   11.1    50.0    1007         20          
Winds are 1-min average.

Tropical cyclone tracks developed by Michael Bath using data from the Joint Typhoon Warning Centre Best Tracks and Google Maps.


[Australian Severe Weather index] [Copyright Notice] [Email Contacts] [Search This Site] [Privacy Policy]
Document: tropical_cyclone_adjali.htm Updated: 28 June 2017